createdAt,value
2018-04-15T00:03:30.886Z,15.00
2018-04-15T00:08:25.360Z,14.90
2018-04-15T00:13:20.746Z,14.80
2018-04-15T00:18:15.359Z,14.70
2018-04-15T00:23:09.845Z,14.60
2018-04-15T00:28:04.627Z,14.50
2018-04-15T00:32:59.013Z,14.50
2018-04-15T00:37:54.355Z,14.40
2018-04-15T00:42:49.093Z,14.40
2018-04-15T00:47:43.484Z,14.40
2018-04-15T00:52:37.804Z,14.40
2018-04-15T00:57:32.261Z,14.30
2018-04-15T01:02:27.396Z,14.30
2018-04-15T01:07:21.748Z,14.30
2018-04-15T01:12:16.219Z,14.30
2018-04-15T01:17:10.591Z,14.20
2018-04-15T01:22:04.792Z,14.20
2018-04-15T01:26:59.181Z,14.30
2018-04-15T01:31:54.124Z,14.20
2018-04-15T01:36:48.464Z,14.20
2018-04-15T01:41:42.895Z,14.10
2018-04-15T01:46:37.803Z,14.00
2018-04-15T01:51:32.177Z,14.00
2018-04-15T01:56:26.535Z,14.00
2018-04-15T02:01:21.685Z,14.00
2018-04-15T02:06:16.045Z,14.00
2018-04-15T02:11:10.530Z,14.00
2018-04-15T02:16:04.503Z,14.00
2018-04-15T02:20:59.795Z,13.80
2018-04-15T02:25:54.352Z,13.80
2018-04-15T02:30:48.957Z,13.80
2018-04-15T02:35:43.375Z,13.80
2018-04-15T02:40:37.758Z,13.80
2018-04-15T02:45:32.121Z,13.80
2018-04-15T02:50:26.480Z,13.90
2018-04-15T02:55:20.907Z,13.90
2018-04-15T03:00:16.058Z,13.80
2018-04-15T03:05:10.404Z,13.80
2018-04-15T03:10:04.750Z,13.80
2018-04-15T03:14:59.109Z,13.80
2018-04-15T03:19:53.513Z,13.80
2018-04-15T03:24:48.644Z,13.80
2018-04-15T03:29:43.780Z,13.80
2018-04-15T03:34:38.879Z,13.80
2018-04-15T03:39:33.255Z,13.80
2018-04-15T03:44:27.600Z,13.80
2018-04-15T03:49:22.722Z,13.80
2018-04-15T03:54:17.849Z,13.70
2018-04-15T03:59:12.457Z,13.70
2018-04-15T04:04:06.826Z,13.70
2018-04-15T04:09:01.187Z,13.70
2018-04-15T04:13:55.324Z,13.70
2018-04-15T04:19:06.565Z,13.60
2018-04-15T04:24:17.955Z,13.60
2018-04-15T04:29:12.333Z,13.60
2018-04-15T04:34:06.696Z,13.60
2018-04-15T04:39:01.258Z,13.60
2018-04-15T04:43:57.746Z,13.50
2018-04-15T04:48:52.150Z,13.50
2018-04-15T04:53:46.523Z,13.50
2018-04-15T04:58:40.902Z,13.40
2018-04-15T05:03:35.243Z,13.40
2018-04-15T05:08:29.900Z,13.30
2018-04-15T05:13:24.275Z,13.20
2018-04-15T05:18:18.678Z,13.20
2018-04-15T05:23:13.045Z,13.10
2018-04-15T05:28:08.205Z,13.10
2018-04-15T05:33:03.062Z,13.00
2018-04-15T05:37:58.175Z,13.00
2018-04-15T05:42:52.566Z,13.00
2018-04-15T05:47:47.630Z,13.00
2018-04-15T05:52:41.882Z,13.10
2018-04-15T05:57:36.362Z,12.90
2018-04-15T06:02:30.729Z,12.90
2018-04-15T06:07:27.650Z,12.80
2018-04-15T06:12:22.063Z,12.80
2018-04-15T06:17:16.478Z,12.80
2018-04-15T06:22:12.101Z,13.00
2018-04-15T06:27:06.524Z,12.90
2018-04-15T06:32:01.001Z,13.20
2018-04-15T06:36:56.642Z,14.10
2018-04-15T06:41:51.385Z,14.10
2018-04-15T06:46:49.051Z,16.00
2018-04-15T06:51:44.565Z,16.00
2018-04-15T06:56:38.923Z,20.60
2018-04-15T07:01:33.764Z,25.60
2018-04-15T07:06:28.273Z,28.90
2018-04-15T07:11:22.652Z,27.60
2018-04-15T07:16:17.010Z,26.90
2018-04-15T07:21:12.305Z,33.20
2018-04-15T07:26:06.433Z,33.10
2018-04-15T07:31:01.323Z,34.80
2018-04-15T07:35:55.719Z,35.20
2018-04-15T07:40:50.413Z,33.20
2018-04-15T07:45:45.058Z,32.00
2018-04-15T07:50:39.710Z,34.00
2018-04-15T07:55:35.108Z,34.00
2018-04-15T08:00:29.722Z,34.00
2018-04-15T08:05:24.358Z,35.80
2018-04-15T08:10:19.958Z,32.30
2018-04-15T08:15:14.655Z,32.20
2018-04-15T08:20:09.947Z,33.10
2018-04-15T08:25:05.554Z,36.80
2018-04-15T08:30:01.300Z,39.40
2018-04-15T08:34:56.151Z,39.30
2018-04-15T08:39:50.806Z,40.80
2018-04-15T08:44:45.427Z,39.40
2018-04-15T08:49:40.240Z,41.00
2018-04-15T08:54:34.916Z,43.50
2018-04-15T08:59:30.637Z,45.80
2018-04-15T09:04:25.258Z,45.70
2018-04-15T09:09:20.082Z,47.00
2018-04-15T09:14:14.714Z,48.50
2018-04-15T09:19:09.347Z,48.10
2018-04-15T09:24:04.744Z,50.20
2018-04-15T09:28:59.515Z,50.10
2018-04-15T09:33:54.165Z,49.50
2018-04-15T09:38:49.580Z,42.10
2018-04-15T09:43:44.478Z,42.10
2018-04-15T09:48:39.485Z,42.00
2018-04-15T09:53:34.215Z,39.20
2018-04-15T09:58:29.177Z,34.90
2018-04-15T10:03:24.720Z,28.90
2018-04-15T10:08:19.353Z,28.70
2018-04-15T10:13:13.727Z,27.40
2018-04-15T10:18:08.102Z,26.00
2018-04-15T10:23:03.407Z,24.90
2018-04-15T10:27:58.717Z,24.30
2018-04-15T10:32:53.827Z,24.00
2018-04-15T10:37:48.428Z,24.00
2018-04-15T10:42:42.779Z,24.00
2018-04-15T10:47:37.928Z,22.90
2018-04-15T10:52:32.308Z,22.90
2018-04-15T10:57:27.463Z,22.40
2018-04-15T11:02:21.969Z,22.30
2018-04-15T11:07:16.335Z,22.20
2018-04-15T11:12:11.472Z,21.70
2018-04-15T11:17:05.823Z,21.60
2018-04-15T11:22:00.191Z,21.60
2018-04-15T11:26:54.605Z,21.00
2018-04-15T11:31:49.785Z,21.10
2018-04-15T11:36:45.063Z,21.30
2018-04-15T11:41:39.673Z,21.30
2018-04-15T11:46:34.050Z,21.10
2018-04-15T11:51:28.468Z,20.70
2018-04-15T11:56:23.172Z,20.50
2018-04-15T12:01:17.543Z,20.80
2018-04-15T12:06:12.101Z,20.90
2018-04-15T12:11:06.511Z,21.10
2018-04-15T12:16:01.641Z,21.10
2018-04-15T12:20:56.086Z,21.10
2018-04-15T12:25:50.455Z,21.10
2018-04-15T12:30:45.112Z,21.10
2018-04-15T12:35:39.528Z,21.10
2018-04-15T12:40:34.092Z,21.30
2018-04-15T12:45:28.874Z,21.30
2018-04-15T12:50:23.237Z,21.20
2018-04-15T12:55:17.583Z,21.20
2018-04-15T13:00:11.948Z,21.30
2018-04-15T13:05:06.317Z,21.40
2018-04-15T13:10:01.480Z,21.40
2018-04-15T13:14:55.857Z,21.40
2018-04-15T13:19:50.217Z,21.70
2018-04-15T13:24:44.590Z,22.40
2018-04-15T13:29:38.976Z,22.80
2018-04-15T13:34:33.099Z,22.80
2018-04-15T13:39:27.484Z,22.50
2018-04-15T13:44:23.202Z,22.30
2018-04-15T13:49:17.437Z,22.10
2018-04-15T13:54:11.798Z,22.40
2018-04-15T13:59:06.323Z,22.60
2018-04-15T14:04:01.148Z,22.30
2018-04-15T14:08:55.937Z,22.20
2018-04-15T14:13:50.318Z,22.30
2018-04-15T14:18:45.528Z,22.80
2018-04-15T14:23:40.637Z,22.60
2018-04-15T14:28:35.033Z,22.60
2018-04-15T14:33:29.708Z,22.80
2018-04-15T14:38:24.057Z,22.90
2018-04-15T14:43:18.847Z,23.20
2018-04-15T14:48:13.242Z,23.30
2018-04-15T14:53:07.841Z,23.40
2018-04-15T14:58:02.239Z,23.50
2018-04-15T15:02:57.223Z,23.60
2018-04-15T15:07:52.410Z,23.40
2018-04-15T15:12:48.617Z,23.30
2018-04-15T15:17:43.140Z,23.30
2018-04-15T15:22:37.521Z,23.50
2018-04-15T15:27:31.781Z,23.40
2018-04-15T15:32:27.070Z,23.10
2018-04-15T15:37:21.585Z,23.10
2018-04-15T15:42:15.962Z,22.80
2018-04-15T15:47:10.437Z,22.70
2018-04-15T15:52:04.582Z,22.50
2018-04-15T15:57:04.292Z,22.40
2018-04-15T16:02:00.296Z,22.10
2018-04-15T16:06:55.427Z,22.00
2018-04-15T16:11:49.935Z,22.00
2018-04-15T16:16:44.279Z,21.80
2018-04-15T16:21:38.695Z,21.60
2018-04-15T16:26:33.716Z,21.40
2018-04-15T16:31:28.296Z,21.30
2018-04-15T16:36:22.757Z,21.20
2018-04-15T16:41:18.151Z,20.80
2018-04-15T16:46:12.647Z,20.80
2018-04-15T16:51:06.994Z,20.70
2018-04-15T16:56:02.140Z,20.40
2018-04-15T17:00:56.748Z,20.40
2018-04-15T17:05:51.165Z,20.20
2018-04-15T17:10:45.502Z,20.10
2018-04-15T17:15:41.397Z,19.70
2018-04-15T17:20:38.065Z,19.70
2018-04-15T17:25:32.646Z,19.50
2018-04-15T17:30:27.140Z,19.30
2018-04-15T17:35:21.811Z,19.10
2018-04-15T17:40:16.351Z,18.90
2018-04-15T17:45:11.502Z,18.50
2018-04-15T17:50:06.520Z,18.50
2018-04-15T17:55:00.925Z,18.30
2018-04-15T17:59:56.389Z,17.90
2018-04-15T18:04:50.963Z,17.90
2018-04-15T18:09:45.657Z,17.70
2018-04-15T18:14:40.055Z,17.50
2018-04-15T18:19:34.448Z,17.30
2018-04-15T18:24:29.580Z,17.00
2018-04-15T18:29:23.919Z,17.00
2018-04-15T18:34:18.289Z,16.80
2018-04-15T18:39:12.709Z,16.60
2018-04-15T18:44:07.075Z,16.50
2018-04-15T18:49:02.334Z,16.20
2018-04-15T18:53:56.762Z,16.20
2018-04-15T18:58:51.280Z,16.10
2018-04-15T19:03:45.665Z,15.90
2018-04-15T19:08:40.026Z,15.90
2018-04-15T19:13:34.375Z,15.80
2018-04-15T19:18:28.723Z,15.70
2018-04-15T19:23:23.123Z,15.60
2018-04-15T19:28:18.336Z,15.40
2018-04-15T19:33:13.478Z,15.40
2018-04-15T19:38:07.883Z,15.40
2018-04-15T19:43:02.424Z,15.40
2018-04-15T19:47:56.778Z,15.40
2018-04-15T19:52:51.918Z,15.40
2018-04-15T19:57:46.283Z,15.30
2018-04-15T20:02:41.431Z,15.30
2018-04-15T20:07:36.227Z,15.30
2018-04-15T20:12:31.355Z,15.20
2018-04-15T20:17:26.515Z,15.20
2018-04-15T20:22:21.321Z,15.20
2018-04-15T20:27:15.753Z,15.20
2018-04-15T20:32:10.279Z,15.20
2018-04-15T20:37:04.781Z,15.20
2018-04-15T20:41:58.905Z,15.20
2018-04-15T20:46:53.293Z,15.20
2018-04-15T20:51:47.738Z,15.20
2018-04-15T20:56:41.910Z,15.20
2018-04-15T21:01:36.281Z,15.10
2018-04-15T21:06:30.446Z,15.20
2018-04-15T21:11:24.846Z,15.30
2018-04-15T21:16:19.236Z,15.30
2018-04-15T21:21:13.633Z,15.40
2018-04-15T21:26:08.030Z,15.40
2018-04-15T21:31:02.656Z,15.50
2018-04-15T21:35:57.018Z,15.60
2018-04-15T21:40:51.467Z,15.60
2018-04-15T21:45:45.867Z,15.70
2018-04-15T21:50:40.475Z,15.70
2018-04-15T21:55:34.687Z,15.60
2018-04-15T22:00:28.908Z,15.40
2018-04-15T22:05:23.212Z,15.30
2018-04-15T22:10:18.318Z,15.00
2018-04-15T22:15:12.803Z,15.00
2018-04-15T22:20:07.182Z,14.90
2018-04-15T22:25:02.334Z,14.70
2018-04-15T22:29:57.053Z,14.70
2018-04-15T22:34:51.417Z,14.60
2018-04-15T22:39:45.755Z,14.50
2018-04-15T22:44:40.150Z,14.40
2018-04-15T22:49:34.698Z,14.30
2018-04-15T22:54:29.831Z,14.10
2018-04-15T22:59:25.042Z,14.10
2018-04-15T23:04:19.611Z,14.00
2018-04-15T23:09:14.003Z,14.10
2018-04-15T23:14:08.465Z,14.00
2018-04-15T23:19:03.570Z,13.80
2018-04-15T23:23:58.704Z,13.70
2018-04-15T23:28:53.274Z,13.70
2018-04-15T23:33:47.619Z,13.70
2018-04-15T23:38:42.754Z,13.50
2018-04-15T23:43:37.157Z,13.50
2018-04-15T23:48:31.507Z,13.40
2018-04-15T23:53:25.887Z,13.40
2018-04-15T23:58:20.023Z,13.50
